createdAt,value
2018-11-14T00:04:23.599Z,9.00
2018-11-14T00:09:18.019Z,9.10
2018-11-14T00:14:12.419Z,9.10
2018-11-14T00:19:07.216Z,9.10
2018-11-14T00:24:01.617Z,9.10
2018-11-14T00:28:56.414Z,9.10
2018-11-14T00:33:50.759Z,9.20
2018-11-14T00:38:45.244Z,9.20
2018-11-14T00:43:39.660Z,9.20
2018-11-14T00:48:34.072Z,9.30
2018-11-14T00:53:28.458Z,9.30
2018-11-14T00:58:22.868Z,9.30
2018-11-14T01:03:17.270Z,9.30
2018-11-14T01:08:11.748Z,9.30
2018-11-14T01:13:06.273Z,9.40
2018-11-14T01:18:00.650Z,9.20
2018-11-14T01:22:55.057Z,9.20
2018-11-14T01:27:49.508Z,9.00
2018-11-14T01:32:44.799Z,9.10
2018-11-14T01:37:39.347Z,8.90
2018-11-14T01:42:33.757Z,8.70
2018-11-14T01:47:28.225Z,8.80
2018-11-14T01:52:22.687Z,8.80
2018-11-14T01:57:17.107Z,8.80
2018-11-14T02:02:11.490Z,8.70
2018-11-14T02:07:05.949Z,8.60
2018-11-14T02:12:00.344Z,8.60
2018-11-14T02:16:54.755Z,8.50
2018-11-14T02:21:49.184Z,8.30
2018-11-14T02:26:43.596Z,8.30
2018-11-14T02:31:37.987Z,8.30
2018-11-14T02:36:32.401Z,8.40
2018-11-14T02:41:26.776Z,8.20
2018-11-14T02:46:21.187Z,8.10
2018-11-14T02:51:26.436Z,8.20
2018-11-14T02:56:20.872Z,8.20
2018-11-14T03:01:15.379Z,8.30
2018-11-14T03:06:09.777Z,8.20
2018-11-14T03:11:04.204Z,8.30
2018-11-14T03:15:58.636Z,8.20
2018-11-14T03:20:53.063Z,8.00
2018-11-14T03:25:47.452Z,8.00
2018-11-14T03:30:41.856Z,7.90
2018-11-14T03:35:41.518Z,8.00
2018-11-14T03:40:35.965Z,7.90
2018-11-14T03:45:30.368Z,7.90
2018-11-14T03:50:24.829Z,7.90
2018-11-14T03:55:19.287Z,7.90
2018-11-14T04:00:15.714Z,7.90
2018-11-14T04:05:10.374Z,8.00
2018-11-14T04:10:06.169Z,8.10
2018-11-14T04:15:00.618Z,8.10
2018-11-14T04:19:55.141Z,8.20
2018-11-14T04:24:49.572Z,8.30
2018-11-14T04:29:43.980Z,8.30
2018-11-14T04:34:38.472Z,8.40
2018-11-14T04:39:32.948Z,8.40
2018-11-14T04:44:27.410Z,8.40
2018-11-14T04:49:21.820Z,8.50
2018-11-14T04:54:16.797Z,8.50
2018-11-14T04:59:11.196Z,8.50
2018-11-14T05:04:05.872Z,8.50
2018-11-14T05:09:00.285Z,8.20
2018-11-14T05:13:54.752Z,8.00
2018-11-14T05:18:49.247Z,7.90
2018-11-14T05:23:43.721Z,7.80
2018-11-14T05:28:38.527Z,7.70
2018-11-14T05:33:32.992Z,7.70
2018-11-14T05:38:27.431Z,7.60
2018-11-14T05:43:21.890Z,7.70
2018-11-14T05:48:16.304Z,7.60
2018-11-14T05:53:10.725Z,7.70
2018-11-14T05:58:05.180Z,7.60
2018-11-14T06:03:00.901Z,7.70
2018-11-14T06:07:55.384Z,7.60
2018-11-14T06:12:49.853Z,7.70
2018-11-14T06:17:45.306Z,7.60
2018-11-14T06:22:39.944Z,7.60
2018-11-14T06:27:34.428Z,7.70
2018-11-14T06:32:28.940Z,7.70
2018-11-14T06:37:23.389Z,7.70
2018-11-14T06:42:18.177Z,7.70
2018-11-14T06:47:12.826Z,7.80
2018-11-14T06:52:07.792Z,7.90
2018-11-14T07:02:03.227Z,7.80
2018-11-14T07:06:58.127Z,7.70
2018-11-14T07:11:52.760Z,7.80
2018-11-14T07:16:47.313Z,7.80
2018-11-14T07:21:41.925Z,7.80
2018-11-14T07:26:36.462Z,7.90
2018-11-14T07:31:31.000Z,8.00
2018-11-14T07:36:26.295Z,7.90
2018-11-14T07:41:27.542Z,7.80
2018-11-14T07:46:22.827Z,7.80
2018-11-14T07:51:17.601Z,7.90
2018-11-14T07:56:12.465Z,7.90
2018-11-14T08:01:08.015Z,7.70
2018-11-14T08:06:02.624Z,7.60
2018-11-14T08:10:57.345Z,7.70
2018-11-14T08:15:55.271Z,7.60
2018-11-14T08:21:14.896Z,7.70
2018-11-14T08:26:09.561Z,7.80
2018-11-14T08:31:16.182Z,7.90
2018-11-14T08:36:10.900Z,8.00
2018-11-14T08:41:05.655Z,8.20
2018-11-14T08:46:01.446Z,8.30
2018-11-14T08:50:57.169Z,8.50
2018-11-14T08:55:52.283Z,8.60
2018-11-14T09:00:47.276Z,8.60
2018-11-14T09:05:42.614Z,8.70
2018-11-14T09:10:37.951Z,8.70
2018-11-14T09:15:33.422Z,8.60
2018-11-14T09:20:29.577Z,8.50
2018-11-14T09:25:34.930Z,8.40
2018-11-14T09:30:31.185Z,8.40
2018-11-14T09:35:28.421Z,8.40
2018-11-14T09:40:24.505Z,8.50
2018-11-14T09:45:23.461Z,8.50
2018-11-14T09:50:21.980Z,8.60
2018-11-14T09:55:18.343Z,8.70
2018-11-14T10:00:18.184Z,8.70
2018-11-14T10:05:15.959Z,8.60
2018-11-14T10:10:12.175Z,8.80
2018-11-14T10:15:13.954Z,8.80
2018-11-14T10:20:11.456Z,8.70
2018-11-14T10:25:06.951Z,8.60
2018-11-14T10:30:01.931Z,8.40
2018-11-14T10:34:57.743Z,8.50
2018-11-14T10:39:53.495Z,8.50
2018-11-14T10:44:53.802Z,8.60
2018-11-14T10:49:54.614Z,8.50
2018-11-14T10:54:51.896Z,8.30
2018-11-14T10:59:47.387Z,8.00
2018-11-14T11:04:47.413Z,8.30
2018-11-14T11:09:47.035Z,8.50
2018-11-14T11:14:46.577Z,8.60
2018-11-14T11:19:42.232Z,8.80
2018-11-14T11:24:39.317Z,8.70
2018-11-14T11:29:34.819Z,9.00
2018-11-14T11:34:29.581Z,9.00
2018-11-14T11:39:24.647Z,9.30
2018-11-14T11:44:19.456Z,9.40
2018-11-14T11:49:17.662Z,9.30
2018-11-14T11:54:12.321Z,9.20
2018-11-14T11:59:09.643Z,9.30
2018-11-14T12:04:04.342Z,9.30
2018-11-14T12:08:58.929Z,9.30
2018-11-14T12:13:53.529Z,9.30
2018-11-14T12:18:48.295Z,9.10
2018-11-14T12:23:42.888Z,9.20
2018-11-14T12:28:37.368Z,9.20
2018-11-14T12:33:32.034Z,9.10
2018-11-14T12:38:27.656Z,9.20
2018-11-14T12:43:22.265Z,9.10
2018-11-14T12:48:17.057Z,9.00
2018-11-14T12:53:11.679Z,8.90
2018-11-14T12:58:08.622Z,9.00
2018-11-14T13:03:03.272Z,9.20
2018-11-14T13:07:58.069Z,9.40
2018-11-14T13:12:53.056Z,9.20
2018-11-14T13:17:47.728Z,8.80
2018-11-14T13:22:42.359Z,8.80
2018-11-14T13:27:36.951Z,9.00
2018-11-14T13:32:31.670Z,9.00
2018-11-14T13:37:26.109Z,9.20
2018-11-14T13:42:20.696Z,9.20
2018-11-14T13:47:19.235Z,9.10
2018-11-14T13:52:13.864Z,9.20
2018-11-14T13:57:08.665Z,9.40
2018-11-14T14:02:03.136Z,9.40
2018-11-14T14:06:57.800Z,9.50
2018-11-14T14:11:52.325Z,9.50
2018-11-14T14:16:47.449Z,9.50
2018-11-14T14:21:42.357Z,9.70
2018-11-14T14:26:37.785Z,9.60
2018-11-14T14:31:32.600Z,9.60
2018-11-14T14:36:27.291Z,9.50
2018-11-14T14:41:21.826Z,9.50
2018-11-14T14:46:16.303Z,9.50
2018-11-14T14:51:10.957Z,9.40
2018-11-14T14:56:05.804Z,9.30
2018-11-14T15:01:00.365Z,9.40
2018-11-14T15:05:55.428Z,9.40
2018-11-14T15:10:50.033Z,9.30
2018-11-14T15:15:46.391Z,9.30
2018-11-14T15:20:41.104Z,9.30
2018-11-14T15:25:35.604Z,9.20
2018-11-14T15:30:31.188Z,9.20
2018-11-14T15:35:26.242Z,9.30
2018-11-14T15:40:22.010Z,9.30
2018-11-14T15:45:20.081Z,9.30
2018-11-14T15:50:16.960Z,9.30
2018-11-14T15:55:14.005Z,9.30
2018-11-14T16:00:15.448Z,9.30
2018-11-14T16:05:14.133Z,9.20
2018-11-14T16:10:10.514Z,9.20
2018-11-14T16:15:05.633Z,9.10
2018-11-14T16:20:00.146Z,9.30
2018-11-14T16:24:55.189Z,9.30
2018-11-14T16:29:50.023Z,9.10
2018-11-14T16:34:44.716Z,9.20
2018-11-14T16:39:39.309Z,9.10
2018-11-14T16:44:34.015Z,8.80
2018-11-14T16:49:28.475Z,8.90
2018-11-14T16:54:23.677Z,9.00
2018-11-14T16:59:19.163Z,9.00
2018-11-14T17:04:23.324Z,9.00
2018-11-14T17:09:18.032Z,9.10
2018-11-14T17:14:12.699Z,9.10
2018-11-14T17:19:07.148Z,9.00
2018-11-14T17:24:04.878Z,9.00
2018-11-14T17:29:01.289Z,9.20
2018-11-14T17:33:58.163Z,9.10
2018-11-14T17:38:52.630Z,9.10
2018-11-14T17:43:50.535Z,9.10
2018-11-14T17:48:45.153Z,9.10
2018-11-14T17:53:39.615Z,9.20
2018-11-14T17:58:36.875Z,9.20
2018-11-14T18:03:34.297Z,9.20
2018-11-14T18:08:28.836Z,9.20
2018-11-14T18:13:41.809Z,9.10
2018-11-14T18:18:36.388Z,9.10
2018-11-14T18:23:30.864Z,9.10
2018-11-14T18:28:25.321Z,9.20
2018-11-14T18:33:19.753Z,9.10
2018-11-14T18:38:14.204Z,9.00
2018-11-14T18:43:08.733Z,9.00
2018-11-14T18:48:03.860Z,9.00
2018-11-14T18:53:02.529Z,9.00
2018-11-14T18:57:57.726Z,9.00
2018-11-14T19:02:52.190Z,9.00
2018-11-14T19:07:46.853Z,9.00
2018-11-14T19:12:42.041Z,9.00
2018-11-14T19:17:36.368Z,9.10
2018-11-14T19:22:30.996Z,9.10
2018-11-14T19:27:25.460Z,9.10
2018-11-14T19:32:20.025Z,9.10
2018-11-14T19:37:14.456Z,9.00
2018-11-14T19:42:08.957Z,9.00
2018-11-14T19:47:03.464Z,9.00
2018-11-14T19:51:57.993Z,9.10
2018-11-14T19:56:52.466Z,9.10
2018-11-14T20:01:46.888Z,9.10
2018-11-14T20:06:41.349Z,9.10
2018-11-14T20:11:35.864Z,9.10
2018-11-14T20:16:30.328Z,9.10
2018-11-14T20:21:24.758Z,9.00
2018-11-14T20:26:19.332Z,9.10
2018-11-14T20:31:13.728Z,9.10
2018-11-14T20:36:08.225Z,9.10
2018-11-14T20:41:02.658Z,9.00
2018-11-14T20:45:57.168Z,8.80
2018-11-14T20:50:51.619Z,8.50
2018-11-14T20:55:46.227Z,8.30
2018-11-14T21:00:40.748Z,8.40
2018-11-14T21:05:35.261Z,8.40
2018-11-14T21:10:31.061Z,8.30
2018-11-14T21:15:26.911Z,8.30
2018-11-14T21:20:21.353Z,8.30
2018-11-14T21:25:17.149Z,8.40
2018-11-14T21:30:13.940Z,8.50
2018-11-14T21:35:15.198Z,8.40
2018-11-14T21:40:11.028Z,8.50
2018-11-14T21:45:06.022Z,8.50
2018-11-14T21:50:00.470Z,8.60
2018-11-14T21:54:54.977Z,8.50
2018-11-14T21:59:49.477Z,8.50
2018-11-14T22:04:43.872Z,8.40
2018-11-14T22:09:38.276Z,8.40
2018-11-14T22:14:32.815Z,8.40
2018-11-14T22:19:27.383Z,8.40
2018-11-14T22:24:21.824Z,8.50
2018-11-14T22:29:16.245Z,8.50
2018-11-14T22:34:10.660Z,8.50
2018-11-14T22:39:08.144Z,8.60
2018-11-14T22:44:02.592Z,8.80
2018-11-14T22:48:57.036Z,8.80
2018-11-14T22:53:51.454Z,8.80
2018-11-14T22:58:45.916Z,8.80
2018-11-14T23:03:40.336Z,8.70
2018-11-14T23:08:34.760Z,8.70
2018-11-14T23:13:29.212Z,8.70
2018-11-14T23:18:23.660Z,8.60
2018-11-14T23:23:18.140Z,8.60
2018-11-14T23:28:12.476Z,8.60
2018-11-14T23:33:07.175Z,8.70
2018-11-14T23:38:03.721Z,8.90
2018-11-14T23:42:58.189Z,8.90
2018-11-14T23:47:52.737Z,9.00
2018-11-14T23:52:48.093Z,9.00
2018-11-14T23:57:42.733Z,8.90
